Racecast

Halie Schultz

Temperance Bedford (MI) · 12 · SECMI D1MONROE · Compare head to head

Athlete rating 108.3 2016 XC season
Best race 130.7 XC
Races 41
Seasons 5 2013 — 2017

RankedNation #63651·MI #5009·MI D1 #2833·SEC #237·Team #123 ?

Cross Country

2016 XC 105.3

Temperance Bedford (MI) · Grade 12

Date Meet Event Result Place Rating Difficulty PR/SR Flags
2016-10-08 Portage West MS 5000m 25:37 345th · 13th on team 105.3 +0.038 SR CSR RSR

2015 XC 124.1

Temperance Bedford (MI) · Grade 11

Date Meet Event Result Place Rating Difficulty PR/SR Flags
2015-10-22 Hudson Mills Metropark - OFFICIAL 5000m 20:29.7 14th · 3rd on team 130.7 +0.036 ★PR ★CR ★R SR CSR RSR
2015-10-17 Hudson Mills Metropark - OFFICIAL 5000m 20:42.3 35th · 3rd on team 129.1 +0.036 PR CR R SR CSR RSR
2015-10-03 Pearson's Metro Park 5000m 21:03.9 3rd · 3rd on team 120.1 -0.022 PR ★CR SR CSR
2015-09-19 Springfield Oaks County Park OFFICIAL 5000m 21:49 30th · 3rd on team 127.0 +0.067 PR ★CR R SR CSR RSR
2015-09-10 Munson Park 5000m 22:03.8 44th · 3rd on team 123.8 +0.054 PR ★CR SR CSR RSR
2015-08-29 Boy Scout Camp Lakota 5000m 22:27.24 27th · 4th on team 114.1 -0.003 ★CR CSR
2015-08-27 Heritage Park (Adrian) OFFICIAL 5000m 22:13.9 13th · 3rd on team 123.8 +0.084 ★CR SR CSR RSR

2014 XC 115.2

Temperance Bedford (MI) · Grade 10

Date Meet Event Result Place Rating Difficulty PR/SR Flags
2014-10-25 Lake Erie Metro Park OFFICIAL 5000m 23:57.3 44th · 4th on team 114.5 +0.055 ★CR CSR
2014-10-04 Portage West MS 5000m 22:15 33rd · 2nd on team 120.4 +0.038 ★CR CSR
2014-09-23 Huron Meadows Metropark OFFICIAL 5000m 22:08.4 13th · 1st on team 124.3 +0.052 PR ★CR R SR CSR RSR
2014-09-20 Ella Sharp Park OFFICIAL 5000m 23:48.7 152nd · 11th on team 113.0 +0.038 ★CR CSR
2014-09-09 Hudson Mills Metropark - OFFICIAL 5000m 23:24.1 21st · 1st on team 115.2 +0.036 PR CR SR CSR
2014-09-06 Hedges Boyer Park 5000m 24:15.9 151st · 4th on team 102.2 -0.036 ★CR CSR
2014-08-28 Heritage Park (Adrian) OFFICIAL 5000m 23:51.1 23rd · 7th on team 116.8 +0.084 PR CR R SR CSR RSR

2013 XC 99.8

Temperance Bedford (MI) · Grade 9

Date Meet Event Result Place Rating Difficulty PR/SR Flags
2013-09-28 Pearson's Metro Park 5000m 24:43.8 74th · 13th on team 103.2 -0.022 PR CR SR CSR
2013-09-13 Forest Akers East Golf Course 5000m 25:34 290th · 24th on team 106.0 +0.061 PR ★CR R SR CSR RSR
2013-09-10 Pioneer HS 5000m 29:23 125th · 26th on team 94.3 +0.067 ★CR CSR
2013-09-07 Hedges Boyer Park 5000m 26:27.4 394th · 19th on team 95.6 -0.036 PR CR R SR CSR RSR
2013-08-24 Island Lake Recreation Area OFFICIAL 5000m 27:57 67th · 31st on team +0.069 PR ★CR SR CSR

Track & Field

2017 TF 107.1

Temperance Bedford (MI) · Grade 12

Date Meet Event Result Place Rating Difficulty PR/SR Flags
2017-03-28 SEC Red: Bedford @ Pioneer 1600m 6:26.52 11th · 6th on team 107.1 -0.028 SR RSR

2016 TF 117.4

Temperance Bedford (MI) · Grade 11

Date Meet Event Result Place Rating Difficulty PR/SR Flags
2016-05-20 MHSAA LP Regional 03-1 @ Saline 1600m 5:42.02 11th · 1st on team 118.9 -0.042
2016-05-13 SEC Red Division Finals 1600m 5:48.13 10th · 2nd on team 118.5 -0.033
2016-05-13 SEC Red Division Finals 800m 2:39.27 15th · 3rd on team 115.2 -0.033
2016-05-06 Clay Eagle Invitational 1600m 5:42.01 1st · 1st on team 119.6 -0.039 ★PR SR RSR
2016-05-06 Clay Eagle Invitational 800m 2:35.18 2nd · 2nd on team 117.0 -0.039 ★PR SR
2016-05-03 SEC Tri: Huron/Skyline @ Bedford 1600m 5:45.55 5th · 1st on team 118.4 -0.033 PR SR
2016-04-23 Whitmore Lake HS Invite 1600m 5:46.5 3rd · 2nd on team 119.0 -0.029 PR SR RSR
2016-04-19 Saline @ Bedford 1600m 5:51.32 10th · 3rd on team 117.4 -0.033 PR SR RSR
2016-04-14 Springfield Invitational 1600m 5:58 5th · 2nd on team 115.2 -0.029
2016-04-12 SEC: Bedford @ Pioneer 800m 2:39.48 5th · 2nd on team 115.4 -0.028 PR SR RSR
2016-04-12 SEC: Bedford @ Pioneer 1600m 5:52.7 5th · 2nd on team 117.3 -0.028 PR SR RSR

2015 TF 109.4

Temperance Bedford (MI) · Grade 10

Date Meet Event Result Place Rating Difficulty PR/SR Flags
2015-05-12 SEC: Bedford @ Huron 800m 3:04 1st · 1st on team 100.6 -0.034
2015-05-07 SEC: Red Division Finals 800m 2:40.16 12th · 3rd on team 114.6 -0.032 PR SR RSR
2015-04-28 SEC: Skyline @ Bedford 800m 2:44 4th · 2nd on team 111.2 -0.033
2015-04-25 Whitmore Lake HS Invite 800m 2:42.54 5th · 3rd on team 113.2 -0.029 PR SR RSR
2015-04-21 SEC: Bedford @ Pioneer 800m 2:55 10th · 5th on team 106.3 -0.028 PR SR RSR
2015-04-21 SEC: Bedford @ Pioneer 1600m 6:20.35 11th · 6th on team 110.4 -0.028 SR RSR

2014 TF 105.3

Temperance Bedford (MI) · Grade 9

Date Meet Event Result Place Rating Difficulty PR/SR Flags
2014-05-23 Dundee Beck Freshman Invitational 1600m 6:12.7 1st · 1st on team 112.0 -0.022 PR R SR RSR
2014-05-06 Saline Quad 1600m 6:22.32 18th · 4th on team 106.9 -0.042 PR R SR RSR
2014-05-06 Saline Quad 800m 3:06.29 17th · 8th on team 97.2 -0.042 PR SR